Monongah, West Virginia
Current Conditions -  °F | °C
As of 6:53 PM on Sunday 21 Dec 2014 (Local Time) from KCKB Reporting Station
Clear Clear  
Wind Chill: 26°   Ceiling: Unl
Heat Index: 32°   Visibility: 10mi
Dew Point: 26°   Wind: 7mph
Humidity: 79%   Direction: 20°NNE
Pressure: 30.19"   Gusts: NA
Location:  39.485°N, 80.1426°W
Report Text: KCKB 212353Z 02006KT 10SM CLR 00/M03 A3019 RMK AO2 SLP229 T00001033 10056 20000 58004
Loading
Personal Weather Stations






























Interactive Weather Map New forecast layout! Learn more

10-Day Weather Forecast

Advertisements
Track Severe Weather on mobile